Terminal Aerodrome Forecast
Issued by NWS Wilmington, OH

Current Version | Previous Version | Graphics & Text | Print | Product List | Glossary On
Versions: 1 2 3 4 5 6 7 8 9 10 11 12 13 14 15 16 17 18 19 20 21 22
000
FTUS41 KILN 020702 AAA
TAFCMH
TAF AMD
KCMH 020702Z 0207/0306 VRB04KT P6SM VCSH SCT040 BKN100
      TEMPO 0207/0209 27007KT 5SM -SHRA BKN030
     FM020900 34006KT P6SM SCT015 BKN100
      TEMPO 0209/0213 5SM BR BKN015
     FM021300 32006KT P6SM OVC025
     FM021700 33006KT P6SM SCT025 BKN150
     FM030000 02007KT 5SM BR OVC040=

USA.gov is the U.S. government's official web portal to all federal, state and local government web resources and services.